createdAt,value
2018-05-07T00:00:01.345Z,14.86
2018-05-07T00:01:01.937Z,15.06
2018-05-07T00:02:02.441Z,14.85
2018-05-07T00:03:03.009Z,15.06
2018-05-07T00:04:03.625Z,14.58
2018-05-07T00:05:04.157Z,14.68
2018-05-07T00:06:04.813Z,14.62
2018-05-07T00:07:05.305Z,14.70
2018-05-07T00:08:05.923Z,14.84
2018-05-07T00:09:06.457Z,14.91
2018-05-07T00:10:07.030Z,15.27
2018-05-07T00:11:07.634Z,15.09
2018-05-07T00:12:08.176Z,15.17
2018-05-07T00:13:08.748Z,15.18
2018-05-07T00:14:09.322Z,15.29
2018-05-07T00:15:09.894Z,15.27
2018-05-07T00:16:10.467Z,15.28
2018-05-07T00:17:11.040Z,15.09
2018-05-07T00:18:11.612Z,15.17
2018-05-07T00:19:12.185Z,15.28
2018-05-07T00:20:12.756Z,15.36
2018-05-07T00:21:13.328Z,15.39
2018-05-07T00:22:13.900Z,15.27
2018-05-07T00:23:14.474Z,15.15
2018-05-07T00:24:15.050Z,14.94
2018-05-07T00:25:15.619Z,14.97
2018-05-07T00:26:16.192Z,14.77
2018-05-07T00:27:16.786Z,14.81
2018-05-07T00:28:17.359Z,14.92
2018-05-07T00:29:17.912Z,15.09
2018-05-07T00:30:18.491Z,15.17
2018-05-07T00:31:19.060Z,15.33
2018-05-07T00:32:19.633Z,15.11
2018-05-07T00:33:20.253Z,15.10
2018-05-07T00:34:20.786Z,15.14
2018-05-07T00:35:21.355Z,15.27
2018-05-07T00:36:21.926Z,14.97
2018-05-07T00:37:22.500Z,15.02
2018-05-07T00:38:23.072Z,14.82
2018-05-07T00:39:23.644Z,14.62
2018-05-07T00:40:24.217Z,14.63
2018-05-07T00:41:24.789Z,14.66
2018-05-07T00:42:25.361Z,14.72
2018-05-07T00:43:25.935Z,14.66
2018-05-07T00:44:26.508Z,14.65
2018-05-07T00:45:27.085Z,14.53
2018-05-07T00:46:27.656Z,14.59
2018-05-07T00:47:28.230Z,14.60
2018-05-07T00:48:28.804Z,14.50
2018-05-07T00:49:29.386Z,14.54
2018-05-07T00:50:30.025Z,14.51
2018-05-07T00:51:30.536Z,14.65
2018-05-07T00:52:31.108Z,14.47
2018-05-07T00:53:31.683Z,14.45
2018-05-07T00:54:32.255Z,14.51
2018-05-07T00:55:32.830Z,14.26
2018-05-07T00:56:33.406Z,14.25
2018-05-07T00:57:33.975Z,14.29
2018-05-07T00:58:34.547Z,14.30
2018-05-07T00:59:35.123Z,14.30
2018-05-07T01:00:35.693Z,14.32
2018-05-07T01:01:36.265Z,14.30
2018-05-07T01:02:36.837Z,14.30
2018-05-07T01:03:37.408Z,14.47
2018-05-07T01:04:37.984Z,14.36
2018-05-07T01:05:38.551Z,14.37
2018-05-07T01:06:39.124Z,13.90
2018-05-07T01:07:39.697Z,13.81
2018-05-07T01:08:40.269Z,14.14
2018-05-07T01:09:40.841Z,13.93
2018-05-07T01:10:41.414Z,14.30
2018-05-07T01:11:41.984Z,13.96
2018-05-07T01:12:42.564Z,14.00
2018-05-07T01:13:43.131Z,14.04
2018-05-07T01:14:43.705Z,13.92
2018-05-07T01:15:44.314Z,14.00
2018-05-07T01:16:44.857Z,14.17
2018-05-07T01:17:45.437Z,14.05
2018-05-07T01:18:46.009Z,14.07
2018-05-07T01:19:46.583Z,14.10
2018-05-07T01:20:47.156Z,13.92
2018-05-07T01:21:47.730Z,14.11
2018-05-07T01:22:48.302Z,13.70
2018-05-07T01:23:48.876Z,13.99
2018-05-07T01:24:49.450Z,13.96
2018-05-07T01:25:50.024Z,13.89
2018-05-07T01:26:50.595Z,13.89
2018-05-07T01:27:51.177Z,13.90
2018-05-07T01:28:51.751Z,13.89
2018-05-07T01:29:52.322Z,14.08
2018-05-07T01:30:52.896Z,13.86
2018-05-07T01:31:53.467Z,13.95
2018-05-07T01:32:54.041Z,13.92
2018-05-07T01:33:54.614Z,13.92
2018-05-07T01:34:55.186Z,13.86
2018-05-07T01:35:55.770Z,13.93
2018-05-07T01:36:56.342Z,13.78
2018-05-07T01:37:56.920Z,13.54
2018-05-07T01:38:57.488Z,13.85
2018-05-07T01:39:58.063Z,13.99
2018-05-07T01:40:58.644Z,13.93
2018-05-07T01:41:59.218Z,13.81
2018-05-07T01:42:59.791Z,13.75
2018-05-07T01:44:00.364Z,13.57
2018-05-07T01:45:00.947Z,13.59
2018-05-07T01:46:01.520Z,13.62
2018-05-07T01:47:02.093Z,13.52
2018-05-07T01:48:02.667Z,13.52
2018-05-07T01:49:03.248Z,13.27
2018-05-07T01:50:03.822Z,13.16
2018-05-07T01:51:04.393Z,13.19
2018-05-07T01:52:04.963Z,13.30
2018-05-07T01:53:05.546Z,13.16
2018-05-07T01:54:06.119Z,13.18
2018-05-07T01:55:06.691Z,13.12
2018-05-07T01:56:07.263Z,13.11
2018-05-07T01:57:07.842Z,13.19
2018-05-07T01:58:08.409Z,13.23
2018-05-07T01:59:08.980Z,13.31
2018-05-07T02:00:09.551Z,13.52
2018-05-07T02:01:10.124Z,13.49
2018-05-07T02:02:10.699Z,13.52
2018-05-07T02:03:11.281Z,13.44
2018-05-07T02:04:11.851Z,13.35
2018-05-07T02:05:12.423Z,13.22
2018-05-07T02:06:12.996Z,13.19
2018-05-07T02:07:13.566Z,13.42
2018-05-07T02:08:14.140Z,13.42
2018-05-07T02:09:14.708Z,13.57
2018-05-07T02:10:15.282Z,13.23
2018-05-07T02:11:15.851Z,13.33
2018-05-07T02:12:16.424Z,13.38
2018-05-07T02:13:16.998Z,13.35
2018-05-07T02:14:17.568Z,13.22
2018-05-07T02:15:18.139Z,13.13
2018-05-07T02:16:18.718Z,13.27
2018-05-07T02:17:19.285Z,13.18
2018-05-07T02:18:19.858Z,13.12
2018-05-07T02:19:20.432Z,13.19
2018-05-07T02:20:21.005Z,13.20
2018-05-07T02:21:21.576Z,13.46
2018-05-07T02:22:22.147Z,13.31
2018-05-07T02:23:22.720Z,13.46
2018-05-07T02:24:23.292Z,13.42
2018-05-07T02:25:23.863Z,13.53
2018-05-07T02:26:24.434Z,13.41
2018-05-07T02:27:25.010Z,13.22
2018-05-07T02:28:25.575Z,13.00
2018-05-07T02:29:26.152Z,13.19
2018-05-07T02:30:26.720Z,12.79
2018-05-07T02:31:27.321Z,12.87
2018-05-07T02:32:27.862Z,12.70
2018-05-07T02:33:28.435Z,12.70
2018-05-07T02:34:29.005Z,12.67
2018-05-07T02:35:29.579Z,13.12
2018-05-07T02:36:30.160Z,13.16
2018-05-07T02:37:30.731Z,12.83
2018-05-07T02:38:31.303Z,12.67
2018-05-07T02:39:31.874Z,12.55
2018-05-07T02:40:32.447Z,12.61
2018-05-07T02:41:33.017Z,12.46
2018-05-07T02:42:33.588Z,12.65
2018-05-07T02:43:34.160Z,12.70
2018-05-07T02:44:34.730Z,12.70
2018-05-07T02:45:35.303Z,12.68
2018-05-07T02:46:35.884Z,12.68
2018-05-07T02:47:36.464Z,12.46
2018-05-07T02:48:37.036Z,12.54
2018-05-07T02:49:37.611Z,12.58
2018-05-07T02:50:38.182Z,12.90
2018-05-07T02:51:38.764Z,12.68
2018-05-07T02:52:39.334Z,12.43
2018-05-07T02:53:39.911Z,12.42
2018-05-07T02:54:40.478Z,12.21
2018-05-07T02:55:41.049Z,12.29
2018-05-07T02:56:41.621Z,12.54
2018-05-07T02:57:42.195Z,12.53
2018-05-07T02:58:42.766Z,12.76
2018-05-07T02:59:43.340Z,12.60
2018-05-07T03:00:43.911Z,12.22
2018-05-07T03:01:44.484Z,12.55
2018-05-07T03:02:45.055Z,12.90
2018-05-07T03:03:45.626Z,12.58
2018-05-07T03:04:46.196Z,12.70
2018-05-07T03:05:46.769Z,12.72
2018-05-07T03:06:47.339Z,13.01
2018-05-07T03:07:47.915Z,13.09
2018-05-07T03:08:48.482Z,13.05
2018-05-07T03:09:49.065Z,13.11
2018-05-07T03:10:49.645Z,12.68
2018-05-07T03:11:50.216Z,13.01
2018-05-07T03:12:50.809Z,12.72
2018-05-07T03:13:51.374Z,12.67
2018-05-07T03:14:51.953Z,12.50
2018-05-07T03:15:52.525Z,12.49
2018-05-07T03:16:53.098Z,12.46
2018-05-07T03:17:53.670Z,12.39
2018-05-07T03:18:54.243Z,12.47
2018-05-07T03:19:54.817Z,12.32
2018-05-07T03:20:55.397Z,12.40
2018-05-07T03:21:55.969Z,12.40
2018-05-07T03:22:56.540Z,12.35
2018-05-07T03:23:57.115Z,12.47
2018-05-07T03:24:57.685Z,12.24
2018-05-07T03:25:58.261Z,12.06
2018-05-07T03:26:58.828Z,12.25
2018-05-07T03:27:59.400Z,12.25
2018-05-07T03:28:59.975Z,11.99
2018-05-07T03:30:00.541Z,11.90
2018-05-07T03:31:01.112Z,11.95
2018-05-07T03:32:01.683Z,12.20
2018-05-07T03:33:02.254Z,12.03
2018-05-07T03:34:02.826Z,12.21
2018-05-07T03:35:03.394Z,12.04
2018-05-07T03:36:03.965Z,12.25
2018-05-07T03:37:04.536Z,12.06
2018-05-07T03:38:05.106Z,12.47
2018-05-07T03:39:05.680Z,12.25
2018-05-07T03:40:06.247Z,12.28
2018-05-07T03:41:06.818Z,12.45
2018-05-07T03:42:07.399Z,12.02
2018-05-07T03:43:07.981Z,11.91
2018-05-07T03:44:08.558Z,12.07
2018-05-07T03:45:09.138Z,12.04
2018-05-07T03:46:09.720Z,12.00
2018-05-07T03:47:10.294Z,12.10
2018-05-07T03:48:10.867Z,11.95
2018-05-07T03:49:11.439Z,11.77
2018-05-07T03:50:12.011Z,11.73
2018-05-07T03:51:12.584Z,12.06
2018-05-07T03:52:13.157Z,11.95
2018-05-07T03:53:13.732Z,11.94
2018-05-07T03:54:14.303Z,11.86
2018-05-07T03:55:14.876Z,11.97
2018-05-07T03:56:15.449Z,12.10
2018-05-07T03:57:16.021Z,11.91
2018-05-07T03:58:16.592Z,11.69
2018-05-07T03:59:17.165Z,11.77
2018-05-07T04:00:17.738Z,11.75
2018-05-07T04:01:18.311Z,11.83
2018-05-07T04:02:18.882Z,11.69
2018-05-07T04:03:19.456Z,11.57
2018-05-07T04:04:20.031Z,11.55
2018-05-07T04:05:20.599Z,11.88
2018-05-07T04:06:21.171Z,11.84
2018-05-07T04:07:21.747Z,11.69
2018-05-07T04:08:22.314Z,11.55
2018-05-07T04:09:22.885Z,11.54
2018-05-07T04:10:23.459Z,11.50
2018-05-07T04:11:24.032Z,11.35
2018-05-07T04:12:24.607Z,11.36
2018-05-07T04:13:25.177Z,11.36
2018-05-07T04:14:25.753Z,11.50
2018-05-07T04:15:26.323Z,11.43
2018-05-07T04:16:26.893Z,11.44
2018-05-07T04:17:27.464Z,11.72
2018-05-07T04:18:28.037Z,11.99
2018-05-07T04:19:28.613Z,11.83
2018-05-07T04:20:29.195Z,12.09
2018-05-07T04:21:29.771Z,11.95
2018-05-07T04:22:30.353Z,11.91
2018-05-07T04:23:30.973Z,11.86
2018-05-07T04:24:31.500Z,11.81
2018-05-07T04:25:32.073Z,11.95
2018-05-07T04:26:32.650Z,11.95
2018-05-07T04:27:33.219Z,12.37
2018-05-07T04:28:33.792Z,12.27
2018-05-07T04:29:34.365Z,12.15
2018-05-07T04:30:34.981Z,12.09
2018-05-07T04:31:35.511Z,12.06
2018-05-07T04:32:36.086Z,12.21
2018-05-07T04:33:36.663Z,12.36
2018-05-07T04:34:37.241Z,12.18
2018-05-07T04:35:37.817Z,12.24
2018-05-07T04:36:38.389Z,12.20
2018-05-07T04:37:38.972Z,12.40
2018-05-07T04:38:39.548Z,12.28
2018-05-07T04:39:40.130Z,12.06
2018-05-07T04:40:40.713Z,12.18
2018-05-07T04:41:41.287Z,12.25
2018-05-07T04:42:41.858Z,12.28
2018-05-07T04:43:42.442Z,12.47
2018-05-07T04:44:43.015Z,12.53
2018-05-07T04:45:43.589Z,12.39
2018-05-07T04:46:44.161Z,12.43
2018-05-07T04:47:44.737Z,12.67
2018-05-07T04:48:45.392Z,12.45
2018-05-07T04:49:45.885Z,12.35
2018-05-07T04:50:46.488Z,12.29
2018-05-07T04:51:47.043Z,12.27
2018-05-07T04:52:47.617Z,12.70
2018-05-07T04:53:48.190Z,12.97
2018-05-07T04:54:48.766Z,12.95
2018-05-07T04:55:49.343Z,12.67
2018-05-07T04:56:49.914Z,12.54
2018-05-07T04:57:50.487Z,12.85
2018-05-07T04:58:51.062Z,12.86
2018-05-07T04:59:51.648Z,13.01
2018-05-07T05:00:52.229Z,13.33
2018-05-07T05:01:52.804Z,13.41
2018-05-07T05:02:53.379Z,13.35
2018-05-07T05:03:53.953Z,13.53
2018-05-07T05:04:54.531Z,13.28
2018-05-07T05:05:55.102Z,13.31
2018-05-07T05:06:55.679Z,13.47
2018-05-07T05:07:56.263Z,13.20
2018-05-07T05:08:56.847Z,13.27
2018-05-07T05:09:57.423Z,13.20
2018-05-07T05:10:58.007Z,13.42
2018-05-07T05:11:58.580Z,13.49
2018-05-07T05:12:59.156Z,13.47
2018-05-07T05:13:59.740Z,13.46
2018-05-07T05:15:00.317Z,13.47
2018-05-07T05:16:00.892Z,13.49
2018-05-07T05:17:01.468Z,13.71
2018-05-07T05:18:02.041Z,13.86
2018-05-07T05:19:02.618Z,13.97
2018-05-07T05:20:03.191Z,13.92
2018-05-07T05:21:03.777Z,13.92
2018-05-07T05:22:04.341Z,13.90
2018-05-07T05:23:04.914Z,14.44
2018-05-07T05:24:05.490Z,14.48
2018-05-07T05:25:06.066Z,14.44
2018-05-07T05:26:06.641Z,14.63
2018-05-07T05:27:07.231Z,14.58
2018-05-07T05:28:07.812Z,14.47
2018-05-07T05:29:08.387Z,14.51
2018-05-07T05:30:08.961Z,14.44
2018-05-07T05:31:09.539Z,14.41
2018-05-07T05:32:10.113Z,14.44
2018-05-07T05:33:10.699Z,14.43
2018-05-07T05:34:11.272Z,14.43
2018-05-07T05:35:11.848Z,14.55
2018-05-07T05:36:12.424Z,14.60
2018-05-07T05:37:13.015Z,14.78
2018-05-07T05:38:13.591Z,14.85
2018-05-07T05:39:14.163Z,15.04
2018-05-07T05:40:14.738Z,15.06
2018-05-07T05:41:15.313Z,15.02
2018-05-07T05:42:15.887Z,14.81
2018-05-07T05:43:16.466Z,15.06
2018-05-07T05:44:17.050Z,15.00
2018-05-07T05:45:17.626Z,15.00
2018-05-07T05:46:18.207Z,14.96
2018-05-07T05:47:18.777Z,15.19
2018-05-07T05:48:19.354Z,15.27
2018-05-07T05:49:19.926Z,15.24
2018-05-07T05:50:20.521Z,15.28
2018-05-07T05:51:21.084Z,15.40
2018-05-07T05:52:21.654Z,15.47
2018-05-07T05:53:22.229Z,15.49
2018-05-07T05:54:22.804Z,15.58
2018-05-07T05:55:23.385Z,15.49
2018-05-07T05:56:24.032Z,15.59
2018-05-07T05:57:24.534Z,15.75
2018-05-07T05:58:25.112Z,15.46
2018-05-07T05:59:25.686Z,15.49
2018-05-07T06:00:26.273Z,15.52
2018-05-07T06:01:26.849Z,15.59
2018-05-07T06:02:27.425Z,15.77
2018-05-07T06:03:28.001Z,15.88
2018-05-07T06:04:28.579Z,15.97
2018-05-07T06:05:29.153Z,16.05
2018-05-07T06:06:29.731Z,16.21
2018-05-07T06:07:30.307Z,16.36
2018-05-07T06:08:30.883Z,16.36
2018-05-07T06:09:31.460Z,16.31
2018-05-07T06:10:32.034Z,16.41
2018-05-07T06:11:32.609Z,16.39
2018-05-07T06:12:33.186Z,16.50
2018-05-07T06:13:33.762Z,16.42
2018-05-07T06:14:34.363Z,16.49
2018-05-07T06:15:34.913Z,16.66
2018-05-07T06:16:35.490Z,16.78
2018-05-07T06:17:36.068Z,16.66
2018-05-07T06:18:36.653Z,16.74
2018-05-07T06:19:37.229Z,16.71
2018-05-07T06:20:37.809Z,16.65
2018-05-07T06:21:38.383Z,16.69
2018-05-07T06:22:38.958Z,16.74
2018-05-07T06:23:39.536Z,16.97
2018-05-07T06:24:40.112Z,17.11
2018-05-07T06:25:40.689Z,17.22
2018-05-07T06:26:41.265Z,17.24
2018-05-07T06:27:41.841Z,17.20
2018-05-07T06:28:42.418Z,17.29
2018-05-07T06:29:42.994Z,17.38
2018-05-07T06:30:43.573Z,17.54
2018-05-07T06:31:44.149Z,17.56
2018-05-07T06:32:44.726Z,17.60
2018-05-07T06:33:45.304Z,17.57
2018-05-07T06:34:45.882Z,17.59
2018-05-07T06:35:46.459Z,17.74
2018-05-07T06:36:47.036Z,17.70
2018-05-07T06:37:47.614Z,17.85
2018-05-07T06:38:48.193Z,-15.92
2018-05-07T06:39:48.773Z,-15.92
2018-05-07T06:40:49.346Z,-15.92
2018-05-07T06:41:49.934Z,-15.92
2018-05-07T06:42:50.510Z,-15.92
2018-05-07T06:43:51.086Z,-15.92
2018-05-07T06:44:51.666Z,-15.92
2018-05-07T06:45:52.244Z,-15.92
2018-05-07T06:46:52.820Z,-15.92
2018-05-07T06:47:53.396Z,-15.92
2018-05-07T06:48:53.975Z,-15.92
2018-05-07T06:49:54.557Z,-15.92
2018-05-07T06:50:55.132Z,-15.92
2018-05-07T06:51:55.710Z,-15.92
2018-05-07T06:52:56.287Z,-15.92
2018-05-07T06:53:56.866Z,-15.92
2018-05-07T06:54:57.450Z,-15.92
2018-05-07T06:55:58.035Z,-15.92
2018-05-07T06:56:58.613Z,-15.92
2018-05-07T06:57:59.191Z,-15.92
2018-05-07T06:58:59.768Z,-15.92
2018-05-07T07:00:00.349Z,-15.92
2018-05-07T07:01:00.924Z,-15.92
2018-05-07T07:02:01.552Z,-15.92
2018-05-07T07:03:02.215Z,-15.92
2018-05-07T07:04:02.709Z,-15.92
2018-05-07T07:05:03.286Z,-15.92
2018-05-07T07:06:03.874Z,-15.92
2018-05-07T07:07:04.461Z,-15.92
2018-05-07T07:08:05.100Z,-15.92
2018-05-07T07:09:05.623Z,-15.92
2018-05-07T07:10:06.206Z,-15.92
2018-05-07T07:11:06.794Z,-15.92
2018-05-07T07:12:07.373Z,-15.92
2018-05-07T07:13:07.951Z,-15.92
2018-05-07T07:14:08.533Z,-15.92
2018-05-07T07:15:09.109Z,-15.92
2018-05-07T07:16:09.688Z,-15.92
2018-05-07T07:17:10.268Z,-15.92
2018-05-07T07:18:10.842Z,-15.92
2018-05-07T07:19:11.422Z,-15.92
2018-05-07T07:20:12.000Z,-15.92
2018-05-07T07:21:12.578Z,-15.92
2018-05-07T07:22:13.159Z,-15.92
2018-05-07T07:23:13.735Z,-15.92
2018-05-07T07:24:14.315Z,-15.92
2018-05-07T07:25:14.899Z,-15.92
2018-05-07T07:26:15.471Z,-15.92
2018-05-07T07:27:16.061Z,-15.92
2018-05-07T07:28:16.654Z,-15.92
2018-05-07T07:29:17.228Z,-15.92
2018-05-07T07:30:17.809Z,-15.92
2018-05-07T07:31:18.387Z,-15.92
2018-05-07T07:32:18.966Z,-15.92
2018-05-07T07:33:19.555Z,-15.92
2018-05-07T07:34:20.153Z,-15.92
2018-05-07T07:35:20.729Z,-15.92
2018-05-07T07:36:21.304Z,-15.92
2018-05-07T07:37:21.887Z,-15.92
2018-05-07T07:38:22.464Z,-15.92
2018-05-07T07:39:23.048Z,-15.92
2018-05-07T07:40:23.625Z,-15.92
2018-05-07T07:41:24.214Z,-15.92
2018-05-07T07:42:24.795Z,-15.92
2018-05-07T07:43:25.385Z,-15.92
2018-05-07T07:44:25.960Z,-15.92
2018-05-07T07:45:26.537Z,-15.92
2018-05-07T07:46:27.117Z,-15.92
2018-05-07T07:47:27.694Z,-15.92
2018-05-07T07:48:28.276Z,-15.92
2018-05-07T07:49:28.855Z,-15.92
2018-05-07T07:50:29.446Z,-15.92
2018-05-07T07:51:30.027Z,-15.92
2018-05-07T07:52:30.720Z,-15.92
2018-05-07T07:53:31.221Z,-15.92
2018-05-07T07:54:31.790Z,-15.92
2018-05-07T07:55:32.381Z,-15.92
2018-05-07T07:56:32.962Z,-15.92
2018-05-07T07:57:33.540Z,-15.92
2018-05-07T07:58:34.119Z,-15.92
2018-05-07T07:59:34.699Z,-15.92
2018-05-07T08:00:35.279Z,-15.92
2018-05-07T08:01:35.931Z,-15.92
2018-05-07T08:02:36.444Z,-15.92
2018-05-07T08:03:37.023Z,-15.92
2018-05-07T08:04:37.603Z,-15.92
2018-05-07T08:05:38.194Z,-15.92
2018-05-07T08:06:38.808Z,-15.92
2018-05-07T08:07:39.353Z,-15.92
2018-05-07T08:08:39.932Z,-15.92
2018-05-07T08:09:40.510Z,-15.92
2018-05-07T08:10:41.091Z,-15.92
2018-05-07T08:11:41.670Z,-15.92
2018-05-07T08:12:42.249Z,-15.92
2018-05-07T08:13:42.833Z,-15.92
2018-05-07T08:14:43.419Z,-15.92
2018-05-07T08:15:43.999Z,-15.92
2018-05-07T08:16:44.579Z,-15.92
2018-05-07T08:17:45.158Z,-15.92
2018-05-07T08:18:45.747Z,-15.92
2018-05-07T08:19:46.325Z,-15.92
2018-05-07T08:20:46.906Z,-15.92
2018-05-07T08:21:47.496Z,-15.92
2018-05-07T08:22:48.076Z,-15.92
2018-05-07T08:23:48.655Z,-15.92
2018-05-07T08:24:49.256Z,-15.92
2018-05-07T08:25:49.828Z,-15.92
2018-05-07T08:26:50.408Z,-15.92
2018-05-07T08:27:50.999Z,-15.92
2018-05-07T08:28:51.580Z,-15.92
2018-05-07T08:29:52.158Z,-15.92
2018-05-07T08:30:52.741Z,-15.92
2018-05-07T08:31:53.318Z,-15.92
2018-05-07T08:32:53.898Z,-15.92
2018-05-07T08:33:54.480Z,-15.92
2018-05-07T08:34:55.061Z,-15.92
2018-05-07T08:35:55.640Z,-15.92
2018-05-07T08:36:56.281Z,-15.92
2018-05-07T08:37:56.863Z,-15.92
2018-05-07T08:38:57.443Z,-15.92
2018-05-07T08:39:58.058Z,-15.92
2018-05-07T08:40:58.604Z,-15.92
2018-05-07T08:41:59.191Z,-15.92
2018-05-07T08:42:59.766Z,-15.92
2018-05-07T08:44:00.376Z,-15.92
2018-05-07T08:45:00.927Z,-15.92
2018-05-07T08:46:01.515Z,-15.92
2018-05-07T08:47:02.105Z,-15.92
2018-05-07T08:48:02.687Z,-15.92
2018-05-07T08:49:03.269Z,-15.92
2018-05-07T08:50:03.847Z,-15.92
2018-05-07T08:51:04.499Z,-15.92
2018-05-07T08:52:05.010Z,-15.92
2018-05-07T08:53:05.609Z,-15.92
2018-05-07T08:54:06.174Z,-15.92
2018-05-07T08:55:06.765Z,-15.92
2018-05-07T08:56:07.348Z,-15.92
2018-05-07T08:57:07.940Z,-15.92
2018-05-07T08:58:08.546Z,-15.92
2018-05-07T08:59:09.099Z,-15.92
2018-05-07T09:00:09.680Z,-15.92
2018-05-07T09:01:10.261Z,-15.92
2018-05-07T09:02:10.845Z,-15.92
2018-05-07T09:03:11.424Z,-15.92
2018-05-07T09:04:12.004Z,-15.92
2018-05-07T09:05:12.585Z,-15.92
2018-05-07T09:06:13.168Z,-15.92
2018-05-07T09:07:13.751Z,-15.92
2018-05-07T09:08:14.328Z,-15.92
2018-05-07T09:09:14.910Z,-15.92
2018-05-07T09:10:15.491Z,-15.92
2018-05-07T09:11:16.073Z,-15.92
2018-05-07T09:12:16.653Z,-15.92
2018-05-07T09:13:17.236Z,-15.92
2018-05-07T09:14:17.819Z,-15.92
2018-05-07T09:15:18.399Z,-15.92
2018-05-07T09:16:18.980Z,-15.92
2018-05-07T09:17:19.572Z,-15.92
2018-05-07T09:18:20.163Z,-15.92
2018-05-07T09:19:20.743Z,-15.92
2018-05-07T09:20:21.324Z,-15.92
2018-05-07T09:21:21.905Z,-15.92
2018-05-07T09:22:22.487Z,-15.92
2018-05-07T09:23:23.071Z,-15.92
2018-05-07T09:24:23.663Z,-15.92
2018-05-07T09:25:24.231Z,-15.92
2018-05-07T09:26:24.811Z,-15.92
2018-05-07T09:27:25.403Z,-15.92
2018-05-07T09:28:25.982Z,-15.92
2018-05-07T09:29:26.574Z,-15.92
2018-05-07T09:30:27.154Z,-15.92
2018-05-07T09:31:27.778Z,-15.92
2018-05-07T09:32:28.316Z,-15.92
2018-05-07T09:33:28.912Z,-15.92
2018-05-07T09:34:29.489Z,-15.92
2018-05-07T09:35:30.068Z,-15.92
2018-05-07T09:36:30.650Z,-15.92
2018-05-07T09:37:31.231Z,-15.92
2018-05-07T09:38:31.863Z,-15.92
2018-05-07T09:39:32.396Z,-15.92
2018-05-07T09:40:32.985Z,-15.92
2018-05-07T09:41:33.565Z,-15.92
2018-05-07T09:42:34.184Z,-15.92
2018-05-07T09:43:34.729Z,-15.92
2018-05-07T09:44:35.320Z,-15.92
2018-05-07T09:45:35.904Z,-15.92
2018-05-07T09:46:36.486Z,-15.92
2018-05-07T09:47:37.079Z,-15.92
2018-05-07T09:48:37.659Z,-15.92
2018-05-07T09:49:38.241Z,-15.92
2018-05-07T09:50:38.822Z,-15.92
2018-05-07T09:51:39.404Z,-15.92
2018-05-07T09:52:39.986Z,-15.92
2018-05-07T09:53:40.567Z,-15.92
2018-05-07T09:54:41.147Z,-15.92
2018-05-07T09:55:41.750Z,-15.92
2018-05-07T09:56:42.402Z,-15.92
2018-05-07T09:57:42.891Z,-15.92
2018-05-07T09:58:43.472Z,-15.92
2018-05-07T09:59:44.064Z,-15.92
2018-05-07T10:00:44.646Z,-15.92
2018-05-07T10:01:45.227Z,-15.92
2018-05-07T10:02:45.807Z,-15.92
2018-05-07T10:03:46.389Z,-15.92
2018-05-07T10:04:46.970Z,-15.92
2018-05-07T10:05:47.552Z,-15.92
2018-05-07T10:06:48.134Z,-15.92
2018-05-07T10:07:48.716Z,-15.92
2018-05-07T10:08:49.297Z,-15.92
2018-05-07T10:09:49.879Z,-15.92
2018-05-07T10:10:50.461Z,-15.92
2018-05-07T10:11:51.041Z,-15.92
2018-05-07T10:12:51.624Z,-15.92
2018-05-07T10:13:52.205Z,-15.92
2018-05-07T10:14:52.785Z,-15.92
2018-05-07T10:15:53.368Z,-15.92
2018-05-07T10:16:53.949Z,-15.92
2018-05-07T10:17:54.531Z,-15.92
2018-05-07T10:18:55.114Z,-15.92
2018-05-07T10:19:55.699Z,-15.92
2018-05-07T10:20:56.276Z,-15.92
2018-05-07T10:21:56.856Z,-15.92
2018-05-07T10:22:57.448Z,-15.92
2018-05-07T10:23:58.033Z,-15.92
2018-05-07T10:24:58.611Z,-15.92
2018-05-07T10:25:59.194Z,-15.92
2018-05-07T10:26:59.775Z,-15.92
2018-05-07T10:28:00.355Z,-15.92
2018-05-07T10:29:00.936Z,-15.92
2018-05-07T10:30:01.536Z,-15.92
2018-05-07T10:31:02.122Z,-15.92
2018-05-07T10:32:02.700Z,-15.92
2018-05-07T10:33:03.282Z,-15.92
2018-05-07T10:34:03.863Z,-15.92
2018-05-07T10:35:04.455Z,-15.92
2018-05-07T10:36:05.036Z,-15.92
2018-05-07T10:37:05.616Z,-15.92
2018-05-07T10:38:06.198Z,-15.92
2018-05-07T10:39:06.781Z,-15.92
2018-05-07T10:40:07.363Z,-15.92
2018-05-07T10:41:07.944Z,-15.92
2018-05-07T10:42:08.525Z,-15.92
2018-05-07T10:43:09.108Z,-15.92
2018-05-07T10:44:09.690Z,-15.92
2018-05-07T10:45:10.272Z,-15.92
2018-05-07T10:46:10.853Z,-15.92
2018-05-07T10:47:11.440Z,-15.92
2018-05-07T10:48:12.029Z,-15.92
2018-05-07T10:49:12.612Z,-15.92
2018-05-07T10:50:13.193Z,-15.92
2018-05-07T10:51:13.775Z,-15.92
2018-05-07T10:52:14.358Z,-15.92
2018-05-07T10:53:14.941Z,-15.92
2018-05-07T10:54:15.520Z,-15.92
2018-05-07T10:55:16.110Z,-15.92
2018-05-07T10:56:16.779Z,-15.92
2018-05-07T10:57:17.274Z,-15.92
2018-05-07T10:58:17.857Z,-15.92
2018-05-07T10:59:18.441Z,-15.92
2018-05-07T11:00:19.019Z,-15.92
2018-05-07T11:01:19.602Z,-15.92
2018-05-07T11:02:20.183Z,-15.92
2018-05-07T11:03:20.765Z,-15.92
2018-05-07T11:04:21.347Z,-15.92
2018-05-07T11:05:21.928Z,-15.92
2018-05-07T11:06:22.512Z,-15.92
2018-05-07T11:07:23.114Z,-15.92
2018-05-07T11:08:23.687Z,-15.92
2018-05-07T11:09:24.277Z,-15.92
2018-05-07T11:10:24.862Z,-15.92
2018-05-07T11:11:25.443Z,-15.92
2018-05-07T11:12:26.026Z,-15.92
2018-05-07T11:13:26.605Z,-15.92
2018-05-07T11:14:27.185Z,-15.92
2018-05-07T11:15:27.769Z,-15.92
2018-05-07T11:16:28.350Z,-15.92
2018-05-07T11:17:28.932Z,-15.92
2018-05-07T11:18:29.513Z,-15.92
2018-05-07T11:19:30.094Z,-15.92
2018-05-07T11:20:30.677Z,-15.92
2018-05-07T11:21:31.259Z,-15.92
2018-05-07T11:22:31.841Z,-15.92
2018-05-07T11:23:32.424Z,-15.92
2018-05-07T11:24:33.002Z,-15.92
2018-05-07T11:25:33.585Z,-15.92
2018-05-07T11:26:34.167Z,-15.92
2018-05-07T11:27:34.750Z,-15.92
2018-05-07T11:28:35.332Z,-15.92
2018-05-07T11:29:35.914Z,-15.92
2018-05-07T11:30:36.499Z,-15.92
2018-05-07T11:31:37.081Z,-15.92
2018-05-07T11:32:37.663Z,-15.92
2018-05-07T11:33:38.247Z,-15.92
2018-05-07T11:34:38.829Z,-15.92
2018-05-07T11:35:39.409Z,-15.92
2018-05-07T11:36:39.992Z,-15.92
2018-05-07T11:37:40.572Z,-15.92
2018-05-07T11:38:41.154Z,-15.92
2018-05-07T11:39:41.737Z,-15.92
2018-05-07T11:40:42.345Z,-15.92
2018-05-07T11:41:42.901Z,-15.92
2018-05-07T11:42:43.484Z,-15.92
2018-05-07T11:43:44.067Z,-15.92
2018-05-07T11:44:44.649Z,-15.92
2018-05-07T11:45:45.230Z,-15.92
2018-05-07T11:46:45.811Z,-15.92
2018-05-07T11:47:46.469Z,-15.92
2018-05-07T11:48:46.985Z,-15.92
2018-05-07T11:49:47.567Z,-15.92
2018-05-07T11:50:48.149Z,-15.92
2018-05-07T11:51:48.734Z,-15.92
2018-05-07T11:52:49.315Z,-15.92
2018-05-07T11:53:49.897Z,-15.92
2018-05-07T11:54:50.480Z,-15.92
2018-05-07T11:55:51.062Z,-15.92
2018-05-07T11:56:51.644Z,-15.92
2018-05-07T11:57:52.226Z,-15.92
2018-05-07T11:58:52.808Z,-15.92
2018-05-07T11:59:53.391Z,-15.92
2018-05-07T12:00:53.973Z,-15.92
2018-05-07T12:01:54.554Z,-15.92
2018-05-07T12:02:55.135Z,-15.92
2018-05-07T12:03:55.718Z,-15.92
2018-05-07T12:04:56.311Z,-15.92
2018-05-07T12:05:56.892Z,-15.92
2018-05-07T12:06:57.486Z,-15.92
2018-05-07T12:07:58.068Z,-15.92
2018-05-07T12:08:58.658Z,-15.92
2018-05-07T12:09:59.238Z,-15.92
2018-05-07T12:10:59.825Z,-15.92
2018-05-07T12:12:00.408Z,-15.92
2018-05-07T12:13:00.989Z,-15.92
2018-05-07T12:14:01.570Z,-15.92
2018-05-07T12:15:02.152Z,-15.92
2018-05-07T12:16:02.837Z,-15.92
2018-05-07T12:17:03.323Z,-15.92
2018-05-07T12:18:03.904Z,-15.92
2018-05-07T12:19:04.487Z,-15.92
2018-05-07T12:20:05.071Z,-15.92
2018-05-07T12:21:05.652Z,-15.92
2018-05-07T12:22:06.234Z,-15.92
2018-05-07T12:23:06.894Z,-15.92
2018-05-07T12:24:07.406Z,-15.92
2018-05-07T12:25:07.988Z,-15.92
2018-05-07T12:26:08.582Z,-15.92
2018-05-07T12:27:09.169Z,-15.92
2018-05-07T12:28:09.757Z,-15.92
2018-05-07T12:29:10.345Z,-15.92
2018-05-07T12:30:10.927Z,-15.92
2018-05-07T12:31:11.521Z,-15.92
2018-05-07T12:32:12.094Z,-15.92
2018-05-07T12:33:12.679Z,-15.92
2018-05-07T12:34:13.256Z,-15.92
2018-05-07T12:35:13.838Z,-15.92
2018-05-07T12:36:14.422Z,-15.92
2018-05-07T12:37:15.005Z,-15.92
2018-05-07T12:38:15.587Z,-15.92
2018-05-07T12:39:16.172Z,-15.92
2018-05-07T12:40:16.763Z,-15.92
2018-05-07T12:41:17.356Z,-15.92
2018-05-07T12:42:17.937Z,-15.92
2018-05-07T12:43:18.521Z,-15.92
2018-05-07T12:44:19.112Z,-15.92
2018-05-07T12:45:19.694Z,-15.92
2018-05-07T12:46:20.276Z,-15.92
2018-05-07T12:47:20.858Z,-15.92